Time;durP1;ratioP1;P1;durP2;ratioP2;P2;SDS_P1;SDS_P2;PMS_P1;PMS_P2;Temp;Humidity;BMP_temperature;BMP_pressure;BME280_temperature;BME280_humidity;BME280_pressure;Samples;Min_cycle;Max_cycle;Signal;HPM_P1;HPM_P2
2021/12/20 00:00:51;;;;;;;27.10;7.00;;;5.00;99.90;;;;;;5038611;28;20248;-73
2021/12/20 00:03:20;;;;;;;24.23;5.97;;;4.90;99.90;;;;;;5038678;28;20208;-75
2021/12/20 00:05:51;;;;;;;25.95;6.30;;;5.00;99.90;;;;;;5042364;28;20215;-75
2021/12/20 00:08:18;;;;;;;29.10;6.47;;;4.90;99.90;;;;;;5038126;28;20221;-73
2021/12/20 00:10:47;;;;;;;22.75;6.07;;;4.90;99.90;;;;;;5037320;28;20278;-73
2021/12/20 00:13:16;;;;;;;23.83;5.78;;;4.80;99.90;;;;;;5029814;28;20296;-74
2021/12/20 00:15:44;;;;;;;22.55;6.80;;;4.70;99.90;;;;;;5024084;28;20189;-73
2021/12/20 00:18:11;;;;;;;20.88;5.00;;;4.70;99.90;;;;;;5035035;28;20686;-73
2021/12/20 00:20:39;;;;;;;25.95;7.32;;;4.70;99.90;;;;;;5028898;28;20333;-74
2021/12/20 00:23:06;;;;;;;23.65;6.05;;;4.70;99.90;;;;;;5034820;28;20677;-74
2021/12/20 00:25:34;;;;;;;20.40;6.63;;;4.70;99.90;;;;;;5034677;28;20219;-74
2021/12/20 00:28:01;;;;;;;20.38;6.90;;;4.60;99.90;;;;;;5034910;28;20232;-72
2021/12/20 00:30:30;;;;;;;13.68;5.78;;;4.60;99.90;;;;;;5034395;28;20224;-73
2021/12/20 00:32:57;;;;;;;29.85;6.35;;;4.50;99.90;;;;;;5034550;28;20667;-75
2021/12/20 00:35:25;;;;;;;24.65;5.00;;;4.50;99.90;;;;;;5033037;28;20283;-73
2021/12/20 00:40:38;;;;;;;24.08;6.68;;;4.40;99.90;;;;;;5033742;28;20705;-72
2021/12/20 00:43:05;;;;;;;18.67;9.73;;;4.40;99.90;;;;;;5033943;28;20594;-73
2021/12/20 00:45:34;;;;;;;15.23;5.50;;;4.40;99.90;;;;;;5034430;28;20228;-73
2021/12/20 00:48:02;;;;;;;26.42;5.20;;;4.40;99.90;;;;;;5034105;28;20239;-73
2021/12/20 00:50:31;;;;;;;16.95;4.90;;;4.30;99.90;;;;;;5033678;28;20259;-74
2021/12/20 00:53:00;;;;;;;17.50;6.07;;;4.30;99.90;;;;;;5035004;28;20584;-73
2021/12/20 00:55:29;;;;;;;20.00;5.97;;;4.30;99.90;;;;;;5034197;28;20293;-73
2021/12/20 00:57:59;;;;;;;15.13;6.13;;;4.30;99.90;;;;;;5034087;28;20223;-72
2021/12/20 01:00:28;;;;;;;23.73;6.10;;;4.30;99.90;;;;;;5033343;28;20274;-73
2021/12/20 01:02:56;;;;;;;15.55;5.68;;;4.30;99.90;;;;;;5034124;28;20283;-73
2021/12/20 01:05:24;;;;;;;21.98;6.40;;;4.30;99.90;;;;;;5034058;28;20228;-73
2021/12/20 01:07:55;;;;;;;23.00;6.25;;;4.30;99.90;;;;;;5033973;28;20710;-72
2021/12/20 01:10:25;;;;;;;20.05;5.45;;;4.20;99.90;;;;;;5033294;28;20682;-72
2021/12/20 01:12:54;;;;;;;26.35;6.97;;;4.20;99.90;;;;;;5043236;28;20219;-74
2021/12/20 01:15:23;;;;;;;20.98;6.70;;;4.10;99.90;;;;;;5046732;28;20471;-73
2021/12/20 01:17:51;;;;;;;26.50;5.53;;;4.20;99.90;;;;;;5046683;28;20184;-73
2021/12/20 01:20:19;;;;;;;15.93;6.13;;;4.20;99.90;;;;;;5045972;28;20275;-72
2021/12/20 01:22:47;;;;;;;27.80;7.10;;;4.30;99.90;;;;;;5043339;28;20193;-73
2021/12/20 01:25:15;;;;;;;20.55;5.70;;;4.30;99.90;;;;;;5037530;28;20266;-74
2021/12/20 01:27:44;;;;;;;17.38;5.22;;;4.20;99.90;;;;;;5046529;28;20245;-73
2021/12/20 01:30:13;;;;;;;19.63;4.82;;;4.10;99.90;;;;;;5045642;28;20516;-73
2021/12/20 01:32:42;;;;;;;18.50;5.80;;;4.10;99.90;;;;;;5046690;28;20184;-73
2021/12/20 01:35:11;;;;;;;19.23;5.45;;;4.10;99.90;;;;;;5050895;28;20236;-73
2021/12/20 01:37:38;;;;;;;15.43;5.05;;;4.00;99.90;;;;;;5047344;28;20219;-73
2021/12/20 01:40:08;;;;;;;11.48;4.35;;;4.00;99.90;;;;;;5050870;28;20215;-73
2021/12/20 01:42:36;;;;;;;15.23;5.63;;;3.90;99.90;;;;;;5038876;28;20184;-73
2021/12/20 01:45:07;;;;;;;17.00;5.95;;;3.90;99.90;;;;;;5046351;28;20184;-74
2021/12/20 01:47:37;;;;;;;18.27;5.03;;;3.90;99.90;;;;;;5046523;28;20193;-74
2021/12/20 01:50:12;;;;;;;19.38;4.40;;;3.80;99.90;;;;;;5045984;28;20188;-73
2021/12/20 01:52:42;;;;;;;15.35;6.40;;;3.90;99.90;;;;;;5045215;28;20212;-73
2021/12/20 01:55:10;;;;;;;16.20;4.35;;;3.90;99.90;;;;;;5044205;28;20262;-73
2021/12/20 01:57:37;;;;;;;12.70;4.00;;;4.00;99.90;;;;;;5046611;28;20188;-73
2021/12/20 02:00:09;;;;;;;14.52;4.65;;;4.00;99.90;;;;;;5042617;28;20243;-74
2021/12/20 02:02:36;;;;;;;14.27;5.18;;;4.00;99.90;;;;;;5046446;28;20315;-74
2021/12/20 02:05:18;;;;;;;12.82;3.88;;;4.00;99.90;;;;;;5041665;28;20270;-73
2021/12/20 02:07:52;;;;;;;12.80;3.45;;;4.00;99.90;;;;;;5041683;28;20204;-73
2021/12/20 02:10:20;;;;;;;15.32;5.47;;;4.00;99.90;;;;;;5044616;28;20219;-73
2021/12/20 02:12:47;;;;;;;13.25;5.18;;;3.90;99.90;;;;;;5045987;28;20409;-74
2021/12/20 02:15:15;;;;;;;12.25;3.65;;;4.00;99.90;;;;;;5046311;28;20307;-73
2021/12/20 02:17:42;;;;;;;14.75;4.65;;;4.10;99.90;;;;;;5039232;28;20204;-73
2021/12/20 02:20:24;;;;;;;22.25;5.85;;;4.10;99.90;;;;;;5041513;28;20393;-73
2021/12/20 02:22:53;;;;;;;19.55;5.50;;;4.10;99.90;;;;;;5046189;28;20191;-73
2021/12/20 02:25:20;;;;;;;22.38;6.63;;;4.10;99.90;;;;;;5045934;28;20454;-73
2021/12/20 02:27:48;;;;;;;16.90;7.43;;;4.00;99.90;;;;;;5045789;28;20192;-73
2021/12/20 02:30:39;;;;;;;14.73;5.20;;;4.00;99.90;;;;;;5040802;28;20227;-73
2021/12/20 02:38:37;;;;;;;8.93;4.57;;;3.80;99.90;;;;;;5048384;28;20188;-74
2021/12/20 02:41:08;;;;;;;13.00;4.13;;;3.80;99.90;;;;;;5049402;28;20211;-73
2021/12/20 02:43:39;;;;;;;15.02;5.07;;;3.70;99.90;;;;;;5049757;28;20206;-73
2021/12/20 02:46:12;;;;;;;18.00;5.07;;;3.70;99.90;;;;;;5049424;28;20216;-73
2021/12/20 02:48:39;;;;;;;11.57;4.35;;;3.70;99.90;;;;;;5050013;28;20195;-73
2021/12/20 02:51:07;;;;;;;16.27;4.47;;;3.70;99.90;;;;;;5044552;28;20211;-73
2021/12/20 02:53:34;;;;;;;17.85;5.25;;;3.60;99.90;;;;;;5048515;28;20270;-73
2021/12/20 02:56:02;;;;;;;11.52;5.45;;;3.50;99.90;;;;;;5048918;28;20188;-73
2021/12/20 02:58:28;;;;;;;11.50;5.68;;;3.50;99.90;;;;;;5049719;28;20240;-73
2021/12/20 03:00:55;;;;;;;8.35;3.78;;;3.40;99.90;;;;;;5044446;28;20235;-73
2021/12/20 03:03:22;;;;;;;10.13;3.30;;;3.40;99.90;;;;;;5049580;28;20195;-73
2021/12/20 03:05:49;;;;;;;7.03;3.55;;;3.40;99.90;;;;;;5047050;28;20246;-73
2021/12/20 03:08:21;;;;;;;11.18;3.85;;;3.40;99.90;;;;;;5049458;28;20180;-74
2021/12/20 03:10:55;;;;;;;10.82;4.18;;;3.40;99.90;;;;;;5041136;28;20334;-73
2021/12/20 03:13:23;;;;;;;6.32;3.70;;;3.40;99.90;;;;;;5037498;28;20191;-73
2021/12/20 03:15:50;;;;;;;6.80;3.83;;;3.40;99.90;;;;;;5049651;28;20176;-73
2021/12/20 03:18:17;;;;;;;12.07;3.70;;;3.40;99.90;;;;;;5044179;28;20184;-73
2021/12/20 03:20:44;;;;;;;13.20;4.43;;;3.40;99.90;;;;;;5041429;28;20215;-72
2021/12/20 03:23:11;;;;;;;10.10;3.25;;;3.40;99.90;;;;;;5053490;28;20234;-73
2021/12/20 03:25:42;;;;;;;11.57;3.65;;;3.40;99.90;;;;;;5052665;28;20215;-72
2021/12/20 03:28:09;;;;;;;7.72;3.80;;;3.40;99.90;;;;;;5054696;28;20185;-73
2021/12/20 03:30:39;;;;;;;9.52;4.28;;;3.40;99.90;;;;;;5049571;28;20334;-73
2021/12/20 03:33:06;;;;;;;8.98;3.40;;;3.50;99.90;;;;;;5049051;28;20223;-73
2021/12/20 03:35:33;;;;;;;8.68;4.07;;;3.50;99.90;;;;;;5042703;28;20206;-73
2021/12/20 03:38:00;;;;;;;6.07;2.97;;;3.50;99.90;;;;;;5036923;28;20245;-74
2021/12/20 03:40:26;;;;;;;6.82;3.72;;;3.40;99.90;;;;;;5048185;28;20254;-74
2021/12/20 03:42:55;;;;;;;6.70;3.00;;;3.40;99.90;;;;;;5041033;28;20264;-74
2021/12/20 03:45:22;;;;;;;8.00;3.85;;;3.50;99.90;;;;;;5046029;28;20199;-74
2021/12/20 03:47:50;;;;;;;12.93;3.75;;;3.50;99.90;;;;;;5045448;28;20218;-74
2021/12/20 03:50:18;;;;;;;12.77;4.75;;;3.50;99.90;;;;;;5049485;28;20211;-73
2021/12/20 03:52:45;;;;;;;5.28;3.45;;;3.40;99.90;;;;;;5044643;28;20267;-76
2021/12/20 03:55:14;;;;;;;13.25;4.38;;;3.30;99.90;;;;;;5050970;28;20463;-73
2021/12/20 03:57:41;;;;;;;9.20;3.67;;;3.30;99.90;;;;;;5042612;28;20259;-73
2021/12/20 04:00:13;;;;;;;6.80;3.58;;;3.30;99.90;;;;;;5044798;28;20209;-74
2021/12/20 04:02:42;;;;;;;9.18;3.58;;;3.20;99.90;;;;;;5048447;28;20260;-74
2021/12/20 04:05:10;;;;;;;8.70;3.60;;;3.10;99.90;;;;;;5043429;28;20184;-73
2021/12/20 04:07:37;;;;;;;10.18;4.90;;;3.10;99.90;;;;;;5045315;28;20305;-74
2021/12/20 04:10:05;;;;;;;13.75;3.90;;;3.00;99.90;;;;;;5047307;28;20185;-74
2021/12/20 04:12:32;;;;;;;18.50;3.65;;;3.00;99.90;;;;;;5048455;28;20196;-74
2021/12/20 04:14:59;;;;;;;5.18;3.22;;;3.00;99.90;;;;;;5047954;28;20216;-74
2021/12/20 04:17:27;;;;;;;7.57;4.05;;;3.10;99.90;;;;;;5048388;28;20207;-73
2021/12/20 04:19:54;;;;;;;6.80;4.20;;;3.10;99.90;;;;;;5047448;28;20223;-74
2021/12/20 04:22:21;;;;;;;8.13;3.92;;;3.00;99.90;;;;;;5047738;28;20240;-73
2021/12/20 04:24:48;;;;;;;10.75;3.80;;;3.00;99.90;;;;;;5045606;28;20257;-74
2021/12/20 04:27:15;;;;;;;11.80;3.92;;;3.00;99.90;;;;;;5047602;28;20450;-74
2021/12/20 04:29:42;;;;;;;7.68;4.03;;;3.00;99.90;;;;;;5044069;28;20199;-73
2021/12/20 04:32:09;;;;;;;10.23;3.38;;;3.00;99.90;;;;;;5047570;28;20208;-74
2021/12/20 04:34:38;;;;;;;6.55;4.13;;;3.10;99.90;;;;;;5042203;28;20225;-73
2021/12/20 04:37:07;;;;;;;25.80;4.40;;;3.10;99.90;;;;;;5046270;28;20239;-74
2021/12/20 04:39:34;;;;;;;9.60;3.28;;;3.10;99.90;;;;;;5047364;28;20199;-74
2021/12/20 04:42:01;;;;;;;7.63;3.65;;;3.10;99.90;;;;;;5045455;28;20223;-73
2021/12/20 04:44:28;;;;;;;10.23;4.18;;;3.10;99.90;;;;;;5045792;28;20426;-74
2021/12/20 04:46:55;;;;;;;8.52;3.72;;;3.20;99.90;;;;;;5047556;28;20247;-74
2021/12/20 04:49:24;;;;;;;13.07;4.05;;;3.20;99.90;;;;;;5047236;28;20326;-74
2021/12/20 04:51:53;;;;;;;15.65;4.50;;;3.20;99.90;;;;;;5047028;28;20226;-74
2021/12/20 04:54:21;;;;;;;11.07;4.50;;;3.20;99.90;;;;;;5046419;28;20212;-74
2021/12/20 04:56:48;;;;;;;10.15;4.68;;;3.20;99.90;;;;;;5045763;28;20223;-74
2021/12/20 04:59:14;;;;;;;8.45;3.72;;;3.20;99.90;;;;;;5047554;28;20196;-74
2021/12/20 05:01:41;;;;;;;8.38;5.13;;;3.20;99.90;;;;;;5046809;28;20385;-75
2021/12/20 05:04:08;;;;;;;12.90;4.35;;;3.20;99.90;;;;;;5047325;28;20211;-74
2021/12/20 05:06:35;;;;;;;11.20;4.70;;;3.20;99.90;;;;;;5046684;28;20243;-74
2021/12/20 05:09:05;;;;;;;9.55;4.53;;;3.20;99.90;;;;;;5048842;28;20199;-73
2021/12/20 05:11:33;;;;;;;6.45;4.30;;;3.20;99.90;;;;;;5051444;28;20262;-74
2021/12/20 05:14:01;;;;;;;11.15;4.20;;;3.20;99.90;;;;;;5051511;28;20433;-72
2021/12/20 05:16:31;;;;;;;10.77;5.22;;;3.20;99.90;;;;;;5052183;28;20188;-73
2021/12/20 05:18:58;;;;;;;15.23;5.68;;;3.20;99.90;;;;;;5048394;28;20317;-74
2021/12/20 05:21:25;;;;;;;10.43;4.63;;;3.20;99.90;;;;;;5039662;28;20319;-74
2021/12/20 05:23:52;;;;;;;12.75;4.57;;;3.20;99.90;;;;;;5042367;28;20196;-74
2021/12/20 05:26:21;;;;;;;9.32;4.35;;;3.20;99.90;;;;;;5046642;28;20231;-74
2021/12/20 05:28:49;;;;;;;15.18;3.53;;;3.20;99.90;;;;;;5046909;28;20358;-74
2021/12/20 05:31:16;;;;;;;14.27;4.22;;;3.20;99.90;;;;;;5046263;28;20238;-74
2021/12/20 05:33:43;;;;;;;11.05;4.35;;;3.20;99.90;;;;;;5046936;28;20207;-74
2021/12/20 05:36:10;;;;;;;10.13;4.20;;;3.30;99.90;;;;;;5037575;28;20200;-74
2021/12/20 05:38:37;;;;;;;13.85;4.45;;;3.30;99.90;;;;;;5046432;28;20196;-75
2021/12/20 05:41:04;;;;;;;8.43;4.25;;;3.30;99.90;;;;;;5045843;28;20276;-74
2021/12/20 05:43:32;;;;;;;7.18;4.40;;;3.30;99.90;;;;;;5046432;28;20200;-74
2021/12/20 05:45:59;;;;;;;17.23;4.78;;;3.20;99.90;;;;;;5040905;28;20275;-74
2021/12/20 05:48:26;;;;;;;20.33;5.85;;;3.30;99.90;;;;;;5046277;28;20270;-74
2021/12/20 05:50:53;;;;;;;9.52;4.10;;;3.30;99.90;;;;;;5044314;28;20436;-74
2021/12/20 05:53:20;;;;;;;15.98;4.65;;;3.40;99.90;;;;;;5041369;28;20407;-74
2021/12/20 05:55:47;;;;;;;16.63;6.47;;;3.40;99.90;;;;;;5039109;28;20213;-74
2021/12/20 05:58:14;;;;;;;22.70;6.38;;;3.40;99.90;;;;;;5046231;28;20192;-72
2021/12/20 06:00:42;;;;;;;16.58;3.97;;;3.40;99.90;;;;;;5044098;28;20216;-74
2021/12/20 06:03:10;;;;;;;11.35;4.90;;;3.50;99.90;;;;;;5045690;28;20247;-75
2021/12/20 06:05:41;;;;;;;10.38;5.65;;;3.50;99.90;;;;;;5045997;28;20242;-74
2021/12/20 06:08:08;;;;;;;11.10;4.68;;;3.40;99.90;;;;;;5045766;28;20322;-75
2021/12/20 06:10:35;;;;;;;21.55;4.45;;;3.50;99.90;;;;;;5037568;28;20225;-75
2021/12/20 06:13:03;;;;;;;20.45;6.68;;;3.40;99.90;;;;;;5040587;28;20220;-74
2021/12/20 06:15:29;;;;;;;12.13;4.45;;;3.20;99.90;;;;;;5046211;28;20208;-74
2021/12/20 06:17:58;;;;;;;11.50;4.47;;;3.50;99.90;;;;;;5045647;28;20195;-75
2021/12/20 06:20:25;;;;;;;13.00;5.07;;;3.50;99.90;;;;;;5045649;28;20222;-74
2021/12/20 06:22:52;;;;;;;8.60;4.45;;;3.50;99.90;;;;;;5042725;28;20308;-74
2021/12/20 06:25:22;;;;;;;17.88;4.82;;;3.40;99.90;;;;;;5042842;28;20199;-74
2021/12/20 06:27:49;;;;;;;13.10;5.93;;;3.50;99.90;;;;;;5040699;28;20251;-74
2021/12/20 06:30:16;;;;;;;16.83;5.85;;;3.50;99.90;;;;;;5044701;28;20219;-74
2021/12/20 06:32:45;;;;;;;19.17;5.20;;;3.60;99.90;;;;;;5046129;28;20180;-73
2021/12/20 06:35:14;;;;;;;14.65;6.15;;;4.20;99.90;;;;;;5045629;28;20307;-73
2021/12/20 06:37:42;;;;;;;20.02;6.10;;;4.40;99.90;;;;;;5038802;28;20192;-71
2021/12/20 06:40:11;;;;;;;17.77;5.38;;;4.20;99.90;;;;;;5039953;28;20223;-70
2021/12/20 06:42:38;;;;;;;17.83;5.78;;;3.90;99.90;;;;;;5045802;28;20259;-74
2021/12/20 06:45:07;;;;;;;11.48;4.78;;;3.80;99.90;;;;;;5045723;28;20185;-77
2021/12/20 06:47:44;;;;;;;19.00;7.05;;;3.70;99.90;;;;;;5045582;28;20308;-74
2021/12/20 06:50:13;;;;;;;14.20;5.20;;;3.60;99.90;;;;;;5030486;28;20211;-76
2021/12/20 06:52:40;;;;;;;16.52;5.30;;;3.50;99.90;;;;;;5045024;28;20227;-77
2021/12/20 06:55:09;;;;;;;12.63;6.65;;;3.50;99.90;;;;;;5040435;28;20192;-75
2021/12/20 06:57:36;;;;;;;9.52;5.65;;;3.40;99.90;;;;;;5045805;28;20200;-76
2021/12/20 07:00:06;;;;;;;15.43;6.70;;;3.50;99.90;;;;;;5050650;28;20268;-76
2021/12/20 07:02:32;;;;;;;21.08;6.55;;;3.40;99.90;;;;;;5053618;28;20216;-76
2021/12/20 07:04:59;;;;;;;12.77;7.22;;;3.50;99.90;;;;;;5054078;28;20185;-74
2021/12/20 07:07:28;;;;;;;15.07;5.63;;;3.50;99.90;;;;;;5049807;28;20258;-76
2021/12/20 07:09:55;;;;;;;17.75;5.53;;;3.40;99.90;;;;;;5045692;28;20215;-74
2021/12/20 07:12:22;;;;;;;15.10;6.22;;;3.40;99.90;;;;;;5045472;28;20199;-76
2021/12/20 07:14:51;;;;;;;14.85;6.10;;;3.40;99.90;;;;;;5045274;28;20235;-75
2021/12/20 07:17:18;;;;;;;14.27;6.10;;;3.40;99.90;;;;;;5041095;28;20379;-75
2021/12/20 07:19:45;;;;;;;19.08;6.75;;;3.40;99.90;;;;;;5042099;28;20189;-74
2021/12/20 07:22:12;;;;;;;13.82;5.43;;;3.40;99.90;;;;;;5036711;28;20227;-73
2021/12/20 07:24:40;;;;;;;18.50;5.80;;;3.40;99.90;;;;;;5042727;28;20191;-71
2021/12/20 07:27:09;;;;;;;13.50;7.07;;;3.50;99.90;;;;;;5048295;28;20247;-73
2021/12/20 07:29:37;;;;;;;10.32;6.55;;;3.50;99.90;;;;;;5047824;28;20210;-73
2021/12/20 07:32:05;;;;;;;15.25;6.90;;;3.50;99.90;;;;;;5043465;28;20204;-71
2021/12/20 07:34:32;;;;;;;15.00;9.15;;;3.50;99.90;;;;;;5032340;28;20257;-70
2021/12/20 07:36:59;;;;;;;13.77;6.68;;;3.60;99.90;;;;;;5039720;28;20215;-74
2021/12/20 07:39:26;;;;;;;15.18;7.88;;;3.50;99.90;;;;;;5034544;28;20247;-73
2021/12/20 07:41:54;;;;;;;13.60;6.95;;;3.50;99.90;;;;;;5047542;28;20263;-73
2021/12/20 07:44:22;;;;;;;13.43;6.63;;;3.30;99.90;;;;;;5047285;28;20200;-72
2021/12/20 07:46:52;;;;;;;9.13;6.78;;;3.10;99.90;;;;;;5037550;28;20246;-71
2021/12/20 07:49:19;;;;;;;11.55;6.57;;;3.00;99.90;;;;;;5042759;28;20216;-72
2021/12/20 07:51:46;;;;;;;9.88;6.55;;;3.00;99.90;;;;;;5042264;28;20271;-71
2021/12/20 07:54:13;;;;;;;14.95;8.98;;;2.90;99.90;;;;;;5041686;28;20248;-73
2021/12/20 07:56:40;;;;;;;17.95;7.10;;;2.80;99.90;;;;;;5041512;28;20255;-73
2021/12/20 07:59:09;;;;;;;16.63;7.28;;;2.90;99.90;;;;;;5041283;28;20188;-72
2021/12/20 08:01:36;;;;;;;11.82;7.80;;;2.70;99.90;;;;;;5033338;28;20219;-72
2021/12/20 08:04:03;;;;;;;17.38;8.95;;;2.70;99.90;;;;;;5042576;28;20191;-72
2021/12/20 08:06:31;;;;;;;18.48;8.95;;;2.70;99.90;;;;;;5044479;28;20453;-72
2021/12/20 08:08:57;;;;;;;16.05;8.48;;;2.70;99.90;;;;;;5047624;28;20277;-72
2021/12/20 08:11:24;;;;;;;13.18;8.38;;;2.70;99.90;;;;;;5047260;28;20208;-71
2021/12/20 08:13:51;;;;;;;12.02;8.07;;;2.70;99.90;;;;;;5048073;28;20228;-72
2021/12/20 08:16:20;;;;;;;10.95;7.38;;;2.70;99.90;;;;;;5048132;28;20220;-71
2021/12/20 08:18:48;;;;;;;12.18;7.28;;;2.80;99.90;;;;;;5048094;28;20185;-71
2021/12/20 08:21:15;;;;;;;16.30;7.13;;;2.90;99.90;;;;;;5046647;28;20483;-71
2021/12/20 08:23:43;;;;;;;14.45;7.05;;;2.90;99.90;;;;;;5047416;28;20282;-71
2021/12/20 08:26:11;;;;;;;10.95;7.10;;;3.00;99.90;;;;;;5047577;28;20273;-72
2021/12/20 08:28:38;;;;;;;10.23;7.53;;;3.20;99.90;;;;;;5043128;28;20250;-72
2021/12/20 08:31:06;;;;;;;17.60;8.85;;;3.40;99.90;;;;;;5036232;28;20287;-72
2021/12/20 08:33:34;;;;;;;8.73;7.00;;;3.50;99.90;;;;;;5047643;28;20306;-72
2021/12/20 08:36:05;;;;;;;13.88;7.30;;;3.70;99.90;;;;;;5045978;28;20216;-73
2021/12/20 08:38:33;;;;;;;18.23;10.18;;;3.60;99.90;;;;;;5044159;28;20310;-72
2021/12/20 08:41:00;;;;;;;12.57;6.45;;;3.50;99.90;;;;;;5045988;28;20208;-72
2021/12/20 08:43:28;;;;;;;13.63;6.47;;;3.60;99.90;;;;;;5047034;28;20230;-72
2021/12/20 08:45:56;;;;;;;13.48;6.70;;;3.70;99.90;;;;;;5039979;28;20337;-71
2021/12/20 08:48:23;;;;;;;8.40;6.35;;;3.80;99.90;;;;;;5047065;28;20257;-72
2021/12/20 08:50:51;;;;;;;22.77;6.60;;;4.20;99.90;;;;;;5035189;28;20247;-72
2021/12/20 08:53:18;;;;;;;8.85;6.28;;;4.90;99.90;;;;;;5044791;28;20201;-72
2021/12/20 08:55:45;;;;;;;12.15;5.35;;;6.00;99.90;;;;;;5045056;28;20225;-72
2021/12/20 08:58:13;;;;;;;14.73;5.60;;;7.20;99.90;;;;;;5042844;28;20274;-73
2021/12/20 09:00:40;;;;;;;6.72;3.67;;;8.10;99.90;;;;;;5045819;28;20271;-73
2021/12/20 09:03:07;;;;;;;13.45;4.90;;;9.10;99.90;;;;;;5039558;28;20186;-73
2021/12/20 09:05:35;;;;;;;12.23;6.15;;;10.20;99.90;;;;;;5035292;28;20202;-72
2021/12/20 09:08:07;;;;;;;12.35;5.20;;;10.60;99.90;;;;;;5044553;28;20378;-73
2021/12/20 09:10:35;;;;;;;12.93;5.55;;;11.20;99.90;;;;;;5045083;28;20215;-73
2021/12/20 09:13:03;;;;;;;10.63;4.10;;;11.70;98.10;;;;;;5043834;28;20219;-73
2021/12/20 09:15:31;;;;;;;10.15;4.40;;;12.20;96.40;;;;;;5046509;28;20188;-73
2021/12/20 09:17:58;;;;;;;13.15;6.25;;;12.40;94.90;;;;;;5045903;28;20226;-74
2021/12/20 09:20:30;;;;;;;12.23;4.22;;;12.60;94.20;;;;;;5039267;28;20255;-74
2021/12/20 09:23:03;;;;;;;16.65;4.65;;;12.70;93.30;;;;;;5045911;28;20250;-73
2021/12/20 09:25:33;;;;;;;10.63;5.00;;;12.70;93.30;;;;;;5044091;28;20228;-73
2021/12/20 09:28:02;;;;;;;9.45;5.78;;;13.00;93.00;;;;;;5043905;28;20369;-72
2021/12/20 09:30:31;;;;;;;10.60;4.85;;;13.00;93.00;;;;;;5044883;28;20297;-73
2021/12/20 09:32:58;;;;;;;6.88;3.92;;;13.10;92.40;;;;;;5044867;28;20267;-72
2021/12/20 09:35:26;;;;;;;9.88;5.05;;;13.00;92.00;;;;;;5046166;28;20247;-73
2021/12/20 09:37:54;;;;;;;12.85;5.97;;;13.10;92.20;;;;;;5043042;28;20227;-73
2021/12/20 09:40:31;;;;;;;16.23;5.10;;;13.20;91.70;;;;;;5043558;28;20239;-73
2021/12/20 09:43:01;;;;;;;6.70;4.72;;;13.10;91.70;;;;;;5045354;28;20211;-73
2021/12/20 09:45:29;;;;;;;12.95;5.45;;;13.20;91.50;;;;;;5043538;28;20383;-72
2021/12/20 09:47:56;;;;;;;15.27;5.10;;;13.30;91.50;;;;;;5045679;28;20255;-72
2021/12/20 09:50:24;;;;;;;9.02;4.45;;;13.40;91.10;;;;;;5044560;28;20338;-72
2021/12/20 09:52:50;;;;;;;12.55;5.57;;;13.50;90.90;;;;;;5044027;28;20212;-72
2021/12/20 09:55:19;;;;;;;10.88;5.72;;;13.60;90.60;;;;;;5045612;28;20258;-72
2021/12/20 09:57:49;;;;;;;11.73;5.15;;;13.80;90.30;;;;;;5045915;28;20242;-72
2021/12/20 10:00:21;;;;;;;11.57;6.32;;;14.00;89.70;;;;;;5044630;28;20216;-72
2021/12/20 10:02:49;;;;;;;15.45;5.55;;;14.00;89.70;;;;;;5045183;28;20205;-71
2021/12/20 10:05:18;;;;;;;14.95;6.13;;;13.80;89.80;;;;;;5045523;28;20184;-70
2021/12/20 10:07:50;;;;;;;10.27;5.40;;;13.90;90.00;;;;;;5045724;28;20319;-70
2021/12/20 10:10:37;;;;;;;7.03;4.57;;;13.90;90.00;;;;;;5043613;28;20431;-70
2021/12/20 10:13:04;;;;;;;12.02;5.70;;;14.10;90.10;;;;;;5044793;28;20217;-70
2021/12/20 10:15:38;;;;;;;8.07;4.65;;;14.40;88.50;;;;;;5044482;28;20219;-70
2021/12/20 10:18:05;;;;;;;12.85;4.93;;;14.10;90.50;;;;;;5045400;28;20263;-70
2021/12/20 10:20:35;;;;;;;8.73;4.55;;;13.30;89.30;;;;;;5044657;28;20279;-71
2021/12/20 10:23:12;;;;;;;7.72;5.60;;;13.30;91.70;;;;;;5045239;28;20359;-70
2021/12/20 10:25:39;;;;;;;18.40;7.88;;;12.90;92.20;;;;;;5045442;28;20436;-71
2021/12/20 10:28:08;;;;;;;8.60;3.92;;;12.70;91.20;;;;;;5050296;28;20279;-71
2021/12/20 10:30:39;;;;;;;7.55;4.88;;;12.50;91.90;;;;;;5045195;28;20231;-71
2021/12/20 10:33:11;;;;;;;17.75;5.75;;;12.40;92.00;;;;;;5044984;28;20301;-71
2021/12/20 10:35:41;;;;;;;8.73;6.70;;;12.20;92.00;;;;;;5044796;28;20310;-71
2021/12/20 10:38:22;;;;;;;11.13;4.95;;;11.50;92.70;;;;;;5045163;28;20192;-71
2021/12/20 10:40:50;;;;;;;9.05;5.63;;;10.80;94.00;;;;;;5044909;28;20295;-71
2021/12/20 10:43:23;;;;;;;16.48;6.22;;;10.20;96.20;;;;;;5045618;28;20196;-71
2021/12/20 10:45:53;;;;;;;13.15;5.55;;;9.90;97.90;;;;;;5046040;28;20192;-71
2021/12/20 10:48:21;;;;;;;8.20;4.57;;;9.60;98.90;;;;;;5044851;28;20258;-70
2021/12/20 10:50:48;;;;;;;8.73;4.95;;;9.30;99.80;;;;;;5044281;28;20254;-70
2021/12/20 10:53:21;;;;;;;8.75;4.55;;;9.10;99.90;;;;;;5046999;28;20231;-70
2021/12/20 10:55:51;;;;;;;10.18;4.78;;;8.90;99.90;;;;;;5044353;28;20294;-70
2021/12/20 10:58:30;;;;;;;11.98;5.63;;;8.80;99.90;;;;;;5048628;28;20303;-71
2021/12/20 11:01:21;;;;;;;7.05;4.68;;;8.60;99.90;;;;;;5048496;28;20322;-71
2021/12/20 11:04:00;;;;;;;9.68;5.18;;;8.40;99.90;;;;;;5042170;28;20214;-69
2021/12/20 11:06:56;;;;;;;5.95;3.90;;;8.30;99.90;;;;;;5048781;28;20192;-72
2021/12/20 11:09:23;;;;;;;8.90;4.43;;;8.20;99.90;;;;;;5048492;28;20246;-70
2021/12/20 11:11:53;;;;;;;12.73;5.00;;;8.10;99.90;;;;;;5043122;28;20208;-70
2021/12/20 11:14:22;;;;;;;5.70;4.78;;;8.10;99.90;;;;;;5047661;28;20422;-70
2021/12/20 11:16:53;;;;;;;11.75;6.47;;;8.00;99.90;;;;;;5046574;28;20200;-70
2021/12/20 11:19:23;;;;;;;10.40;5.10;;;7.90;99.90;;;;;;5045523;28;20205;-70
2021/12/20 11:22:01;;;;;;;22.00;7.13;;;7.80;99.90;;;;;;5043730;28;20215;-71
2021/12/20 11:24:31;;;;;;;7.68;3.80;;;7.80;99.90;;;;;;5048515;28;20195;-70
2021/12/20 11:27:00;;;;;;;22.23;5.47;;;7.80;99.90;;;;;;5048602;28;20188;-70
2021/12/20 11:29:27;;;;;;;18.80;5.82;;;7.80;99.90;;;;;;5048058;28;20270;-70
2021/12/20 11:31:58;;;;;;;10.75;6.07;;;7.70;99.90;;;;;;5041730;28;20257;-70
2021/12/20 11:34:25;;;;;;;9.52;4.80;;;7.70;99.90;;;;;;5048233;28;20437;-70
2021/12/20 11:36:55;;;;;;;15.93;6.28;;;7.60;99.90;;;;;;5048198;28;20188;-71
2021/12/20 11:39:21;;;;;;;9.32;6.50;;;7.50;99.90;;;;;;5047791;28;20370;-70
2021/12/20 11:41:49;;;;;;;11.63;6.55;;;7.50;99.90;;;;;;5047821;28;20218;-70
2021/12/20 11:44:18;;;;;;;10.98;5.43;;;7.40;99.90;;;;;;5048319;28;20198;-70
2021/12/20 11:47:02;;;;;;;15.82;5.03;;;7.30;99.90;;;;;;5048527;28;20239;-70
2021/12/20 11:49:30;;;;;;;19.48;6.70;;;7.20;99.90;;;;;;5041805;28;20250;-71
2021/12/20 11:51:59;;;;;;;12.68;6.15;;;7.20;99.90;;;;;;5044394;28;20423;-69
2021/12/20 11:54:59;;;;;;;12.15;4.82;;;7.10;99.90;;;;;;5046761;28;20212;-70
2021/12/20 11:57:44;;;;;;;12.20;5.65;;;7.10;99.90;;;;;;4987132;28;20206;-69
2021/12/20 12:00:32;;;;;;;10.05;5.03;;;7.00;99.90;;;;;;4986352;28;20212;-69
2021/12/20 12:03:06;;;;;;;9.57;4.97;;;7.00;99.90;;;;;;5024674;28;20254;-71
2021/12/20 12:05:39;;;;;;;12.07;5.63;;;7.00;99.90;;;;;;5047791;28;20268;-69
2021/12/20 12:08:32;;;;;;;11.98;4.30;;;7.00;99.90;;;;;;5046280;28;20192;-70
2021/12/20 12:11:16;;;;;;;17.90;6.57;;;7.00;99.90;;;;;;5035489;28;20219;-69
2021/12/20 12:14:18;;;;;;;10.75;5.03;;;7.00;99.90;;;;;;5035149;28;20191;-70
2021/12/20 12:17:01;;;;;;;6.97;5.20;;;7.00;99.90;;;;;;5047589;28;20294;-69
2021/12/20 12:19:48;;;;;;;15.05;4.78;;;7.00;99.90;;;;;;5046675;28;20195;-71
2021/12/20 12:22:36;;;;;;;14.18;4.70;;;7.10;99.90;;;;;;5047569;28;20297;-70
2021/12/20 12:25:07;;;;;;;24.77;7.25;;;7.10;99.90;;;;;;5042451;28;20238;-70
2021/12/20 12:27:35;;;;;;;7.55;4.85;;;7.10;99.90;;;;;;5045705;28;20266;-71
2021/12/20 12:30:27;;;;;;;7.85;4.65;;;7.20;99.90;;;;;;5041243;28;20223;-71
2021/12/20 12:33:36;;;;;;;8.32;3.75;;;7.10;99.90;;;;;;5046614;28;20186;-70
2021/12/20 12:36:28;;;;;;;4.80;2.78;;;7.20;99.90;;;;;;5047183;28;20221;-71
2021/12/20 12:39:02;;;;;;;13.77;3.90;;;7.10;99.90;;;;;;5046932;28;20241;-71
2021/12/20 12:41:31;;;;;;;7.50;3.35;;;7.10;99.90;;;;;;5046202;28;20266;-70
2021/12/20 12:44:08;;;;;;;10.77;3.35;;;7.10;99.90;;;;;;5046159;28;20198;-70
2021/12/20 12:47:07;;;;;;;7.07;2.85;;;7.10;99.90;;;;;;5046932;28;20235;-71
2021/12/20 12:49:44;;;;;;;6.35;2.95;;;7.20;99.90;;;;;;5040322;28;20309;-71
2021/12/20 12:52:32;;;;;;;8.63;2.40;;;7.20;99.90;;;;;;5044799;28;20233;-70
2021/12/20 12:55:02;;;;;;;8.77;3.20;;;7.30;99.90;;;;;;5046583;28;20214;-70
2021/12/20 12:57:33;;;;;;;5.10;2.05;;;7.30;99.90;;;;;;5046259;28;20599;-71
2021/12/20 13:00:22;;;;;;;11.85;2.40;;;7.30;99.90;;;;;;5045917;28;20309;-71
2021/12/20 13:02:51;;;;;;;7.65;2.90;;;7.30;99.90;;;;;;5039276;28;20405;-71
2021/12/20 13:05:23;;;;;;;10.82;2.80;;;7.30;99.90;;;;;;5045537;28;20350;-69
2021/12/20 13:07:53;;;;;;;6.25;3.22;;;7.30;99.90;;;;;;5046150;28;20215;-70
2021/12/20 13:10:28;;;;;;;11.10;3.00;;;7.30;99.90;;;;;;5044675;28;20250;-70